sensor_id;sensor_type;location;lat;lon;timestamp;P1;durP1;ratioP1;P2;durP2;ratioP2
5085;SDS011;4715;51.660;7.082;2022-12-28T00:00:51;3.33;;;1.83;;
5085;SDS011;4715;51.660;7.082;2022-12-28T00:03:13;3.37;;;1.93;;
5085;SDS011;4715;51.660;7.082;2022-12-28T00:05:35;4.70;;;2.00;;
5085;SDS011;4715;51.660;7.082;2022-12-28T00:07:57;3.33;;;2.07;;
5085;SDS011;4715;51.660;7.082;2022-12-28T00:10:20;2.30;;;1.77;;
5085;SDS011;4715;51.660;7.082;2022-12-28T00:12:42;4.27;;;2.70;;
5085;SDS011;4715;51.660;7.082;2022-12-28T00:15:04;6.27;;;1.80;;
5085;SDS011;4715;51.660;7.082;2022-12-28T00:17:26;1.90;;;1.43;;
5085;SDS011;4715;51.660;7.082;2022-12-28T00:19:48;5.80;;;1.80;;
5085;SDS011;4715;51.660;7.082;2022-12-28T00:22:09;3.63;;;2.10;;
5085;SDS011;4715;51.660;7.082;2022-12-28T00:24:31;3.67;;;1.90;;
5085;SDS011;4715;51.660;7.082;2022-12-28T00:26:55;3.37;;;2.37;;
5085;SDS011;4715;51.660;7.082;2022-12-28T00:29:17;9.10;;;2.63;;
5085;SDS011;4715;51.660;7.082;2022-12-28T00:31:39;3.10;;;1.90;;
5085;SDS011;4715;51.660;7.082;2022-12-28T00:34:01;7.30;;;2.07;;
5085;SDS011;4715;51.660;7.082;2022-12-28T00:36:23;2.90;;;1.80;;
5085;SDS011;4715;51.660;7.082;2022-12-28T00:38:45;6.77;;;2.30;;
5085;SDS011;4715;51.660;7.082;2022-12-28T00:41:07;3.40;;;1.90;;
5085;SDS011;4715;51.660;7.082;2022-12-28T00:43:31;2.20;;;1.37;;
5085;SDS011;4715;51.660;7.082;2022-12-28T00:45:53;3.77;;;1.93;;
5085;SDS011;4715;51.660;7.082;2022-12-28T00:48:16;3.20;;;1.67;;
5085;SDS011;4715;51.660;7.082;2022-12-28T00:50:38;1.97;;;1.80;;
5085;SDS011;4715;51.660;7.082;2022-12-28T00:53:00;2.20;;;1.70;;
5085;SDS011;4715;51.660;7.082;2022-12-28T00:55:22;9.60;;;2.23;;
5085;SDS011;4715;51.660;7.082;2022-12-28T00:57:43;9.87;;;2.97;;
5085;SDS011;4715;51.660;7.082;2022-12-28T01:00:07;5.03;;;2.30;;
5085;SDS011;4715;51.660;7.082;2022-12-28T01:02:30;2.70;;;2.20;;
5085;SDS011;4715;51.660;7.082;2022-12-28T01:04:52;5.43;;;2.10;;
5085;SDS011;4715;51.660;7.082;2022-12-28T01:07:13;4.43;;;1.60;;
5085;SDS011;4715;51.660;7.082;2022-12-28T01:09:35;3.00;;;1.70;;
5085;SDS011;4715;51.660;7.082;2022-12-28T01:11:57;5.53;;;2.53;;
5085;SDS011;4715;51.660;7.082;2022-12-28T01:14:19;7.83;;;2.87;;
5085;SDS011;4715;51.660;7.082;2022-12-28T01:16:42;2.67;;;2.10;;
5085;SDS011;4715;51.660;7.082;2022-12-28T01:19:05;2.93;;;2.03;;
5085;SDS011;4715;51.660;7.082;2022-12-28T01:21:28;2.30;;;2.00;;
5085;SDS011;4715;51.660;7.082;2022-12-28T01:23:52;3.07;;;2.00;;
5085;SDS011;4715;51.660;7.082;2022-12-28T01:26:15;2.07;;;1.47;;
5085;SDS011;4715;51.660;7.082;2022-12-28T01:28:37;5.50;;;3.03;;
5085;SDS011;4715;51.660;7.082;2022-12-28T01:31:01;2.07;;;1.97;;
5085;SDS011;4715;51.660;7.082;2022-12-28T01:33:25;9.40;;;1.70;;
5085;SDS011;4715;51.660;7.082;2022-12-28T01:35:47;3.97;;;1.70;;
5085;SDS011;4715;51.660;7.082;2022-12-28T01:38:09;1.87;;;1.77;;
5085;SDS011;4715;51.660;7.082;2022-12-28T01:40:31;3.17;;;1.70;;
5085;SDS011;4715;51.660;7.082;2022-12-28T01:42:53;5.20;;;1.60;;
5085;SDS011;4715;51.660;7.082;2022-12-28T01:45:15;5.90;;;2.10;;
5085;SDS011;4715;51.660;7.082;2022-12-28T01:47:39;4.13;;;2.00;;
5085;SDS011;4715;51.660;7.082;2022-12-28T01:50:02;7.10;;;2.13;;
5085;SDS011;4715;51.660;7.082;2022-12-28T01:52:29;8.40;;;2.73;;
5085;SDS011;4715;51.660;7.082;2022-12-28T01:54:56;1.87;;;1.60;;
5085;SDS011;4715;51.660;7.082;2022-12-28T01:57:24;1.80;;;1.70;;
5085;SDS011;4715;51.660;7.082;2022-12-28T01:59:49;2.20;;;1.50;;
5085;SDS011;4715;51.660;7.082;2022-12-28T02:02:14;2.00;;;1.87;;
5085;SDS011;4715;51.660;7.082;2022-12-28T02:04:36;3.67;;;1.60;;
5085;SDS011;4715;51.660;7.082;2022-12-28T02:07:00;6.17;;;1.97;;
5085;SDS011;4715;51.660;7.082;2022-12-28T02:09:24;2.00;;;1.80;;
5085;SDS011;4715;51.660;7.082;2022-12-28T02:11:51;4.40;;;2.17;;
5085;SDS011;4715;51.660;7.082;2022-12-28T02:14:16;2.03;;;1.70;;
5085;SDS011;4715;51.660;7.082;2022-12-28T02:16:39;5.70;;;2.13;;
5085;SDS011;4715;51.660;7.082;2022-12-28T02:19:02;2.13;;;1.60;;
5085;SDS011;4715;51.660;7.082;2022-12-28T02:21:29;3.47;;;2.17;;
5085;SDS011;4715;51.660;7.082;2022-12-28T02:24:21;5.73;;;2.13;;
5085;SDS011;4715;51.660;7.082;2022-12-28T02:26:55;3.00;;;2.30;;
5085;SDS011;4715;51.660;7.082;2022-12-28T02:29:25;1.87;;;1.77;;
5085;SDS011;4715;51.660;7.082;2022-12-28T02:32:16;2.17;;;1.33;;
5085;SDS011;4715;51.660;7.082;2022-12-28T02:34:56;2.93;;;1.60;;
5085;SDS011;4715;51.660;7.082;2022-12-28T02:37:27;3.13;;;1.73;;
5085;SDS011;4715;51.660;7.082;2022-12-28T02:39:54;1.60;;;1.50;;
5085;SDS011;4715;51.660;7.082;2022-12-28T02:42:20;2.17;;;1.90;;
5085;SDS011;4715;51.660;7.082;2022-12-28T02:44:46;1.63;;;1.50;;
5085;SDS011;4715;51.660;7.082;2022-12-28T02:47:25;3.93;;;2.00;;
5085;SDS011;4715;51.660;7.082;2022-12-28T02:50:04;2.00;;;1.20;;
5085;SDS011;4715;51.660;7.082;2022-12-28T02:52:31;2.23;;;1.50;;
5085;SDS011;4715;51.660;7.082;2022-12-28T02:55:14;3.23;;;2.17;;
5085;SDS011;4715;51.660;7.082;2022-12-28T02:58:17;3.27;;;2.17;;
5085;SDS011;4715;51.660;7.082;2022-12-28T03:00:53;2.80;;;1.70;;
5085;SDS011;4715;51.660;7.082;2022-12-28T03:03:20;2.13;;;2.03;;
5085;SDS011;4715;51.660;7.082;2022-12-28T03:05:51;5.00;;;2.40;;
5085;SDS011;4715;51.660;7.082;2022-12-28T03:08:35;2.60;;;1.97;;
5085;SDS011;4715;51.660;7.082;2022-12-28T03:11:07;2.77;;;1.30;;
5085;SDS011;4715;51.660;7.082;2022-12-28T03:13:33;2.97;;;1.90;;
5085;SDS011;4715;51.660;7.082;2022-12-28T03:16:05;6.30;;;2.37;;
5085;SDS011;4715;51.660;7.082;2022-12-28T03:18:31;3.53;;;1.87;;
5085;SDS011;4715;51.660;7.082;2022-12-28T03:21:11;2.77;;;2.53;;
5085;SDS011;4715;51.660;7.082;2022-12-28T03:23:52;3.57;;;1.83;;
5085;SDS011;4715;51.660;7.082;2022-12-28T03:26:33;2.87;;;1.83;;
5085;SDS011;4715;51.660;7.082;2022-12-28T03:29:17;5.83;;;2.37;;
5085;SDS011;4715;51.660;7.082;2022-12-28T03:32:00;5.83;;;2.17;;
5085;SDS011;4715;51.660;7.082;2022-12-28T03:34:23;9.53;;;2.20;;
5085;SDS011;4715;51.660;7.082;2022-12-28T03:36:47;6.53;;;1.83;;
5085;SDS011;4715;51.660;7.082;2022-12-28T03:39:17;3.60;;;1.90;;
5085;SDS011;4715;51.660;7.082;2022-12-28T03:41:46;4.13;;;2.20;;
5085;SDS011;4715;51.660;7.082;2022-12-28T03:44:31;2.70;;;1.60;;
5085;SDS011;4715;51.660;7.082;2022-12-28T03:46:56;2.30;;;2.10;;
5085;SDS011;4715;51.660;7.082;2022-12-28T03:49:27;3.43;;;2.17;;
5085;SDS011;4715;51.660;7.082;2022-12-28T03:51:50;2.10;;;2.00;;
5085;SDS011;4715;51.660;7.082;2022-12-28T03:54:13;2.30;;;2.10;;
5085;SDS011;4715;51.660;7.082;2022-12-28T03:56:36;2.10;;;1.83;;
5085;SDS011;4715;51.660;7.082;2022-12-28T03:59:06;4.00;;;2.77;;
5085;SDS011;4715;51.660;7.082;2022-12-28T04:01:28;8.10;;;2.40;;
5085;SDS011;4715;51.660;7.082;2022-12-28T04:03:51;2.50;;;2.03;;
5085;SDS011;4715;51.660;7.082;2022-12-28T04:06:14;3.93;;;2.63;;
5085;SDS011;4715;51.660;7.082;2022-12-28T04:08:37;5.77;;;1.93;;
5085;SDS011;4715;51.660;7.082;2022-12-28T04:10:59;2.63;;;2.43;;
5085;SDS011;4715;51.660;7.082;2022-12-28T04:13:22;1.73;;;1.63;;
5085;SDS011;4715;51.660;7.082;2022-12-28T04:15:53;3.47;;;2.23;;
5085;SDS011;4715;51.660;7.082;2022-12-28T04:18:15;35.47;;;4.33;;
5085;SDS011;4715;51.660;7.082;2022-12-28T04:20:38;2.30;;;2.10;;
5085;SDS011;4715;51.660;7.082;2022-12-28T04:23:00;6.43;;;2.00;;
5085;SDS011;4715;51.660;7.082;2022-12-28T04:25:22;2.50;;;2.10;;
5085;SDS011;4715;51.660;7.082;2022-12-28T04:27:44;2.10;;;1.97;;
5085;SDS011;4715;51.660;7.082;2022-12-28T04:30:06;4.83;;;2.57;;
5085;SDS011;4715;51.660;7.082;2022-12-28T04:32:29;2.00;;;1.80;;
5085;SDS011;4715;51.660;7.082;2022-12-28T04:34:51;5.13;;;2.30;;
5085;SDS011;4715;51.660;7.082;2022-12-28T04:37:14;3.10;;;2.50;;
5085;SDS011;4715;51.660;7.082;2022-12-28T04:39:36;3.83;;;2.50;;
5085;SDS011;4715;51.660;7.082;2022-12-28T04:41:58;2.43;;;2.33;;
5085;SDS011;4715;51.660;7.082;2022-12-28T04:44:20;6.30;;;2.97;;
5085;SDS011;4715;51.660;7.082;2022-12-28T04:46:41;4.77;;;2.20;;
5085;SDS011;4715;51.660;7.082;2022-12-28T04:49:03;2.53;;;2.13;;
5085;SDS011;4715;51.660;7.082;2022-12-28T04:51:26;3.37;;;3.07;;
5085;SDS011;4715;51.660;7.082;2022-12-28T04:53:50;3.10;;;2.80;;
5085;SDS011;4715;51.660;7.082;2022-12-28T04:56:13;4.90;;;3.30;;
5085;SDS011;4715;51.660;7.082;2022-12-28T04:58:36;4.00;;;2.70;;
5085;SDS011;4715;51.660;7.082;2022-12-28T05:01:00;2.90;;;2.60;;
5085;SDS011;4715;51.660;7.082;2022-12-28T05:03:23;2.73;;;2.60;;
5085;SDS011;4715;51.660;7.082;2022-12-28T05:05:45;4.57;;;2.80;;
5085;SDS011;4715;51.660;7.082;2022-12-28T05:08:07;9.57;;;3.83;;
5085;SDS011;4715;51.660;7.082;2022-12-28T05:10:30;2.40;;;2.30;;
5085;SDS011;4715;51.660;7.082;2022-12-28T05:12:52;4.07;;;3.67;;
5085;SDS011;4715;51.660;7.082;2022-12-28T05:15:14;4.13;;;2.90;;
5085;SDS011;4715;51.660;7.082;2022-12-28T05:17:36;3.20;;;3.00;;
5085;SDS011;4715;51.660;7.082;2022-12-28T05:19:58;2.77;;;2.57;;
5085;SDS011;4715;51.660;7.082;2022-12-28T05:22:20;3.20;;;2.87;;
5085;SDS011;4715;51.660;7.082;2022-12-28T05:24:42;3.47;;;3.23;;
5085;SDS011;4715;51.660;7.082;2022-12-28T05:27:05;3.50;;;3.20;;
5085;SDS011;4715;51.660;7.082;2022-12-28T05:29:27;5.27;;;2.97;;
5085;SDS011;4715;51.660;7.082;2022-12-28T05:31:49;2.60;;;2.40;;
5085;SDS011;4715;51.660;7.082;2022-12-28T05:34:10;3.90;;;2.70;;
5085;SDS011;4715;51.660;7.082;2022-12-28T05:36:32;4.40;;;3.23;;
5085;SDS011;4715;51.660;7.082;2022-12-28T05:38:57;3.53;;;3.17;;
5085;SDS011;4715;51.660;7.082;2022-12-28T05:41:20;4.50;;;3.30;;
5085;SDS011;4715;51.660;7.082;2022-12-28T05:43:46;2.70;;;2.50;;
5085;SDS011;4715;51.660;7.082;2022-12-28T05:46:08;5.10;;;3.20;;
5085;SDS011;4715;51.660;7.082;2022-12-28T05:48:32;6.43;;;3.30;;
5085;SDS011;4715;51.660;7.082;2022-12-28T05:50:56;3.67;;;3.47;;
5085;SDS011;4715;51.660;7.082;2022-12-28T05:53:19;5.63;;;3.43;;
5085;SDS011;4715;51.660;7.082;2022-12-28T05:55:41;7.73;;;3.73;;
5085;SDS011;4715;51.660;7.082;2022-12-28T05:58:03;3.57;;;3.27;;
5085;SDS011;4715;51.660;7.082;2022-12-28T06:00:27;5.27;;;4.77;;
5085;SDS011;4715;51.660;7.082;2022-12-28T06:02:49;4.70;;;3.27;;
5085;SDS011;4715;51.660;7.082;2022-12-28T06:05:11;3.90;;;3.60;;
5085;SDS011;4715;51.660;7.082;2022-12-28T06:07:33;5.67;;;3.20;;
5085;SDS011;4715;51.660;7.082;2022-12-28T06:09:54;4.53;;;4.10;;
5085;SDS011;4715;51.660;7.082;2022-12-28T06:12:17;5.30;;;4.77;;
5085;SDS011;4715;51.660;7.082;2022-12-28T06:14:39;4.30;;;4.00;;
5085;SDS011;4715;51.660;7.082;2022-12-28T06:17:02;8.57;;;3.63;;
5085;SDS011;4715;51.660;7.082;2022-12-28T06:19:23;4.07;;;3.77;;
5085;SDS011;4715;51.660;7.082;2022-12-28T06:21:45;3.87;;;3.50;;
5085;SDS011;4715;51.660;7.082;2022-12-28T06:24:08;5.00;;;4.50;;
5085;SDS011;4715;51.660;7.082;2022-12-28T06:26:33;3.30;;;3.00;;
5085;SDS011;4715;51.660;7.082;2022-12-28T06:28:56;6.20;;;4.67;;
5085;SDS011;4715;51.660;7.082;2022-12-28T06:31:21;5.40;;;4.20;;
5085;SDS011;4715;51.660;7.082;2022-12-28T06:33:46;4.60;;;4.30;;
5085;SDS011;4715;51.660;7.082;2022-12-28T06:36:10;6.83;;;4.53;;
5085;SDS011;4715;51.660;7.082;2022-12-28T06:38:33;6.00;;;4.50;;
5085;SDS011;4715;51.660;7.082;2022-12-28T06:41:00;4.80;;;4.40;;
5085;SDS011;4715;51.660;7.082;2022-12-28T06:43:22;5.70;;;5.30;;
5085;SDS011;4715;51.660;7.082;2022-12-28T06:45:52;5.77;;;5.37;;
5085;SDS011;4715;51.660;7.082;2022-12-28T06:48:15;6.30;;;5.70;;
5085;SDS011;4715;51.660;7.082;2022-12-28T06:50:38;4.93;;;4.37;;
5085;SDS011;4715;51.660;7.082;2022-12-28T06:53:00;5.20;;;4.70;;
5085;SDS011;4715;51.660;7.082;2022-12-28T06:55:24;5.10;;;4.60;;
5085;SDS011;4715;51.660;7.082;2022-12-28T06:57:46;6.53;;;4.47;;
5085;SDS011;4715;51.660;7.082;2022-12-28T07:00:08;7.90;;;4.90;;
5085;SDS011;4715;51.660;7.082;2022-12-28T07:02:31;6.10;;;5.67;;
5085;SDS011;4715;51.660;7.082;2022-12-28T07:04:53;5.17;;;4.60;;
5085;SDS011;4715;51.660;7.082;2022-12-28T07:07:16;6.53;;;4.93;;
5085;SDS011;4715;51.660;7.082;2022-12-28T07:09:38;5.67;;;5.10;;
5085;SDS011;4715;51.660;7.082;2022-12-28T07:12:00;11.13;;;6.30;;
5085;SDS011;4715;51.660;7.082;2022-12-28T07:14:22;6.03;;;5.63;;
5085;SDS011;4715;51.660;7.082;2022-12-28T07:16:44;6.27;;;5.77;;
5085;SDS011;4715;51.660;7.082;2022-12-28T07:19:06;5.00;;;4.37;;
5085;SDS011;4715;51.660;7.082;2022-12-28T07:21:28;7.70;;;5.50;;
5085;SDS011;4715;51.660;7.082;2022-12-28T07:23:53;5.97;;;5.47;;
5085;SDS011;4715;51.660;7.082;2022-12-28T07:26:17;4.33;;;4.03;;
5085;SDS011;4715;51.660;7.082;2022-12-28T07:28:41;5.07;;;4.57;;
5085;SDS011;4715;51.660;7.082;2022-12-28T07:31:05;4.77;;;4.43;;
5085;SDS011;4715;51.660;7.082;2022-12-28T07:33:27;4.63;;;4.30;;
5085;SDS011;4715;51.660;7.082;2022-12-28T07:35:49;5.17;;;4.37;;
5085;SDS011;4715;51.660;7.082;2022-12-28T07:38:11;5.27;;;4.77;;
5085;SDS011;4715;51.660;7.082;2022-12-28T07:40:34;6.80;;;4.73;;
5085;SDS011;4715;51.660;7.082;2022-12-28T07:42:58;4.37;;;4.00;;
5085;SDS011;4715;51.660;7.082;2022-12-28T07:45:20;4.47;;;4.20;;
5085;SDS011;4715;51.660;7.082;2022-12-28T07:47:42;6.20;;;4.70;;
5085;SDS011;4715;51.660;7.082;2022-12-28T07:50:04;4.03;;;3.80;;
5085;SDS011;4715;51.660;7.082;2022-12-28T07:52:27;4.10;;;3.80;;
5085;SDS011;4715;51.660;7.082;2022-12-28T07:54:49;4.03;;;3.70;;
5085;SDS011;4715;51.660;7.082;2022-12-28T07:57:12;5.40;;;4.90;;
5085;SDS011;4715;51.660;7.082;2022-12-28T07:59:34;4.07;;;3.87;;
5085;SDS011;4715;51.660;7.082;2022-12-28T08:01:56;5.00;;;4.60;;
5085;SDS011;4715;51.660;7.082;2022-12-28T08:04:19;5.43;;;5.00;;
5085;SDS011;4715;51.660;7.082;2022-12-28T08:06:43;8.40;;;6.10;;
5085;SDS011;4715;51.660;7.082;2022-12-28T08:09:06;6.57;;;6.00;;
5085;SDS011;4715;51.660;7.082;2022-12-28T08:11:30;9.67;;;6.70;;
5085;SDS011;4715;51.660;7.082;2022-12-28T08:13:54;7.93;;;7.20;;
5085;SDS011;4715;51.660;7.082;2022-12-28T08:16:18;8.47;;;7.67;;
5085;SDS011;4715;51.660;7.082;2022-12-28T08:18:41;7.77;;;6.97;;
5085;SDS011;4715;51.660;7.082;2022-12-28T08:21:04;10.93;;;7.90;;
5085;SDS011;4715;51.660;7.082;2022-12-28T08:23:27;7.47;;;6.67;;
5085;SDS011;4715;51.660;7.082;2022-12-28T08:25:49;7.80;;;6.93;;
5085;SDS011;4715;51.660;7.082;2022-12-28T08:28:11;7.83;;;7.10;;
5085;SDS011;4715;51.660;7.082;2022-12-28T08:30:34;6.43;;;5.83;;
5085;SDS011;4715;51.660;7.082;2022-12-28T08:32:56;20.83;;;7.10;;
5085;SDS011;4715;51.660;7.082;2022-12-28T08:35:18;9.00;;;6.80;;
5085;SDS011;4715;51.660;7.082;2022-12-28T08:37:40;8.40;;;6.00;;
5085;SDS011;4715;51.660;7.082;2022-12-28T08:40:02;6.63;;;6.00;;
5085;SDS011;4715;51.660;7.082;2022-12-28T08:42:25;7.10;;;6.40;;
5085;SDS011;4715;51.660;7.082;2022-12-28T08:44:48;5.30;;;4.70;;
5085;SDS011;4715;51.660;7.082;2022-12-28T08:47:12;6.43;;;5.33;;
5085;SDS011;4715;51.660;7.082;2022-12-28T08:49:36;5.50;;;5.10;;
5085;SDS011;4715;51.660;7.082;2022-12-28T08:51:58;4.07;;;3.60;;
5085;SDS011;4715;51.660;7.082;2022-12-28T08:54:20;4.23;;;3.93;;
5085;SDS011;4715;51.660;7.082;2022-12-28T08:56:42;5.33;;;4.17;;
5085;SDS011;4715;51.660;7.082;2022-12-28T08:59:05;6.00;;;3.20;;
5085;SDS011;4715;51.660;7.082;2022-12-28T09:01:28;4.27;;;3.90;;
5085;SDS011;4715;51.660;7.082;2022-12-28T09:03:53;5.07;;;3.60;;
5085;SDS011;4715;51.660;7.082;2022-12-28T09:06:17;4.90;;;3.40;;
5085;SDS011;4715;51.660;7.082;2022-12-28T09:08:40;3.53;;;2.60;;
5085;SDS011;4715;51.660;7.082;2022-12-28T09:11:03;2.67;;;2.47;;
5085;SDS011;4715;51.660;7.082;2022-12-28T09:13:26;2.93;;;2.73;;
5085;SDS011;4715;51.660;7.082;2022-12-28T09:15:54;4.70;;;2.13;;
5085;SDS011;4715;51.660;7.082;2022-12-28T09:18:16;3.07;;;2.87;;
5085;SDS011;4715;51.660;7.082;2022-12-28T09:20:39;4.20;;;2.93;;
5085;SDS011;4715;51.660;7.082;2022-12-28T09:23:01;8.73;;;2.40;;
5085;SDS011;4715;51.660;7.082;2022-12-28T09:25:23;2.77;;;2.43;;
5085;SDS011;4715;51.660;7.082;2022-12-28T09:27:46;2.70;;;2.50;;
5085;SDS011;4715;51.660;7.082;2022-12-28T09:30:09;3.27;;;2.93;;
5085;SDS011;4715;51.660;7.082;2022-12-28T09:32:31;3.23;;;2.93;;
5085;SDS011;4715;51.660;7.082;2022-12-28T09:34:53;4.60;;;3.00;;
5085;SDS011;4715;51.660;7.082;2022-12-28T09:37:17;2.90;;;2.70;;
5085;SDS011;4715;51.660;7.082;2022-12-28T09:39:39;6.80;;;3.37;;
5085;SDS011;4715;51.660;7.082;2022-12-28T09:42:01;4.43;;;2.90;;
5085;SDS011;4715;51.660;7.082;2022-12-28T09:44:37;5.73;;;3.00;;
5085;SDS011;4715;51.660;7.082;2022-12-28T09:47:11;4.63;;;2.70;;
5085;SDS011;4715;51.660;7.082;2022-12-28T09:49:40;2.03;;;1.93;;
5085;SDS011;4715;51.660;7.082;2022-12-28T09:54:49;5.37;;;2.50;;
5085;SDS011;4715;51.660;7.082;2022-12-28T09:57:11;1.97;;;1.77;;
5085;SDS011;4715;51.660;7.082;2022-12-28T09:59:35;3.13;;;2.50;;
5085;SDS011;4715;51.660;7.082;2022-12-28T10:01:57;2.13;;;1.93;;
5085;SDS011;4715;51.660;7.082;2022-12-28T10:04:23;1.77;;;1.67;;
5085;SDS011;4715;51.660;7.082;2022-12-28T10:06:45;3.63;;;2.33;;
5085;SDS011;4715;51.660;7.082;2022-12-28T10:09:11;1.80;;;1.70;;
5085;SDS011;4715;51.660;7.082;2022-12-28T10:11:42;6.77;;;2.53;;
5085;SDS011;4715;51.660;7.082;2022-12-28T10:14:25;2.73;;;2.00;;
5085;SDS011;4715;51.660;7.082;2022-12-28T10:16:49;2.00;;;1.90;;
5085;SDS011;4715;51.660;7.082;2022-12-28T10:19:11;6.50;;;1.80;;
5085;SDS011;4715;51.660;7.082;2022-12-28T10:21:37;1.83;;;1.73;;
5085;SDS011;4715;51.660;7.082;2022-12-28T10:23:59;2.10;;;2.00;;
5085;SDS011;4715;51.660;7.082;2022-12-28T10:26:27;2.03;;;1.93;;
5085;SDS011;4715;51.660;7.082;2022-12-28T10:28:50;1.97;;;1.87;;
5085;SDS011;4715;51.660;7.082;2022-12-28T10:31:13;1.63;;;1.53;;
5085;SDS011;4715;51.660;7.082;2022-12-28T10:33:36;2.27;;;2.00;;
5085;SDS011;4715;51.660;7.082;2022-12-28T10:36:00;1.57;;;1.47;;
5085;SDS011;4715;51.660;7.082;2022-12-28T10:38:22;1.77;;;1.67;;
5085;SDS011;4715;51.660;7.082;2022-12-28T10:40:52;2.00;;;1.90;;
5085;SDS011;4715;51.660;7.082;2022-12-28T10:43:22;2.30;;;1.63;;
5085;SDS011;4715;51.660;7.082;2022-12-28T10:45:49;1.67;;;1.57;;
5085;SDS011;4715;51.660;7.082;2022-12-28T10:48:13;2.20;;;1.90;;
5085;SDS011;4715;51.660;7.082;2022-12-28T10:50:40;1.40;;;1.30;;
5085;SDS011;4715;51.660;7.082;2022-12-28T10:53:15;1.70;;;1.60;;
5085;SDS011;4715;51.660;7.082;2022-12-28T10:55:39;1.50;;;1.40;;
5085;SDS011;4715;51.660;7.082;2022-12-28T11:00:43;1.70;;;1.60;;
5085;SDS011;4715;51.660;7.082;2022-12-28T11:03:15;2.03;;;1.73;;
5085;SDS011;4715;51.660;7.082;2022-12-28T11:05:38;1.60;;;1.40;;
5085;SDS011;4715;51.660;7.082;2022-12-28T11:08:02;3.80;;;1.57;;
5085;SDS011;4715;51.660;7.082;2022-12-28T11:10:26;1.30;;;1.20;;
5085;SDS011;4715;51.660;7.082;2022-12-28T11:12:49;2.70;;;1.60;;
5085;SDS011;4715;51.660;7.082;2022-12-28T11:15:12;1.80;;;1.43;;
5085;SDS011;4715;51.660;7.082;2022-12-28T11:17:37;1.67;;;1.50;;
5085;SDS011;4715;51.660;7.082;2022-12-28T11:20:00;1.67;;;1.57;;
5085;SDS011;4715;51.660;7.082;2022-12-28T11:22:27;1.80;;;1.70;;
5085;SDS011;4715;51.660;7.082;2022-12-28T11:24:49;2.30;;;2.10;;
5085;SDS011;4715;51.660;7.082;2022-12-28T11:27:12;1.70;;;1.60;;
5085;SDS011;4715;51.660;7.082;2022-12-28T11:29:38;2.20;;;2.10;;
5085;SDS011;4715;51.660;7.082;2022-12-28T11:32:05;2.03;;;1.80;;
5085;SDS011;4715;51.660;7.082;2022-12-28T11:34:40;2.17;;;2.07;;
5085;SDS011;4715;51.660;7.082;2022-12-28T11:37:02;1.80;;;1.70;;
5085;SDS011;4715;51.660;7.082;2022-12-28T11:39:31;2.20;;;2.00;;
5085;SDS011;4715;51.660;7.082;2022-12-28T11:42:02;1.77;;;1.67;;
5085;SDS011;4715;51.660;7.082;2022-12-28T11:47:19;1.70;;;1.60;;
5085;SDS011;4715;51.660;7.082;2022-12-28T11:49:46;2.43;;;1.50;;
5085;SDS011;4715;51.660;7.082;2022-12-28T12:00:56;1.97;;;1.40;;
5085;SDS011;4715;51.660;7.082;2022-12-28T12:03:19;1.50;;;1.40;;
5085;SDS011;4715;51.660;7.082;2022-12-28T12:05:49;5.00;;;1.60;;
5085;SDS011;4715;51.660;7.082;2022-12-28T12:13:50;1.90;;;1.70;;
5085;SDS011;4715;51.660;7.082;2022-12-28T12:16:19;1.40;;;1.30;;
5085;SDS011;4715;51.660;7.082;2022-12-28T12:18:45;1.93;;;1.83;;
5085;SDS011;4715;51.660;7.082;2022-12-28T12:21:19;1.37;;;1.30;;
5085;SDS011;4715;51.660;7.082;2022-12-28T12:23:48;1.67;;;1.57;;
5085;SDS011;4715;51.660;7.082;2022-12-28T12:26:18;1.50;;;1.40;;
5085;SDS011;4715;51.660;7.082;2022-12-28T12:28:46;1.77;;;1.67;;
5085;SDS011;4715;51.660;7.082;2022-12-28T12:31:11;8.70;;;2.87;;
5085;SDS011;4715;51.660;7.082;2022-12-28T12:33:36;1.97;;;1.80;;
5085;SDS011;4715;51.660;7.082;2022-12-28T12:36:06;5.60;;;1.70;;
5085;SDS011;4715;51.660;7.082;2022-12-28T12:38:47;1.87;;;1.50;;
5085;SDS011;4715;51.660;7.082;2022-12-28T12:41:28;2.17;;;1.40;;
5085;SDS011;4715;51.660;7.082;2022-12-28T12:44:04;4.87;;;1.40;;
5085;SDS011;4715;51.660;7.082;2022-12-28T12:46:47;1.87;;;1.50;;
5085;SDS011;4715;51.660;7.082;2022-12-28T12:49:37;3.30;;;2.37;;
5085;SDS011;4715;51.660;7.082;2022-12-28T12:52:16;1.93;;;1.77;;
5085;SDS011;4715;51.660;7.082;2022-12-28T12:54:55;2.03;;;1.60;;
5085;SDS011;4715;51.660;7.082;2022-12-28T12:57:28;2.30;;;2.00;;
5085;SDS011;4715;51.660;7.082;2022-12-28T13:00:00;3.17;;;2.23;;
5085;SDS011;4715;51.660;7.082;2022-12-28T13:02:40;4.47;;;1.50;;
5085;SDS011;4715;51.660;7.082;2022-12-28T13:05:36;5.80;;;1.87;;
5085;SDS011;4715;51.660;7.082;2022-12-28T13:08:03;2.83;;;1.70;;
5085;SDS011;4715;51.660;7.082;2022-12-28T13:10:30;4.23;;;1.70;;
5085;SDS011;4715;51.660;7.082;2022-12-28T13:12:55;2.10;;;1.90;;
5085;SDS011;4715;51.660;7.082;2022-12-28T13:15:19;1.77;;;1.60;;
5085;SDS011;4715;51.660;7.082;2022-12-28T13:17:56;3.90;;;1.30;;
5085;SDS011;4715;51.660;7.082;2022-12-28T13:20:20;1.27;;;1.17;;
5085;SDS011;4715;51.660;7.082;2022-12-28T13:22:43;3.03;;;1.47;;
5085;SDS011;4715;51.660;7.082;2022-12-28T13:25:18;3.77;;;1.30;;
5085;SDS011;4715;51.660;7.082;2022-12-28T13:27:46;4.23;;;1.57;;
5085;SDS011;4715;51.660;7.082;2022-12-28T13:30:11;2.20;;;1.70;;
5085;SDS011;4715;51.660;7.082;2022-12-28T13:32:47;2.23;;;1.50;;
5085;SDS011;4715;51.660;7.082;2022-12-28T13:35:15;2.00;;;1.73;;
5085;SDS011;4715;51.660;7.082;2022-12-28T13:37:39;2.50;;;1.67;;
5085;SDS011;4715;51.660;7.082;2022-12-28T13:40:07;3.43;;;1.93;;
5085;SDS011;4715;51.660;7.082;2022-12-28T13:42:35;1.90;;;1.80;;
5085;SDS011;4715;51.660;7.082;2022-12-28T13:45:09;2.47;;;1.70;;
5085;SDS011;4715;51.660;7.082;2022-12-28T13:47:36;2.30;;;2.13;;
5085;SDS011;4715;51.660;7.082;2022-12-28T13:50:00;4.10;;;1.70;;
5085;SDS011;4715;51.660;7.082;2022-12-28T13:52:27;2.20;;;2.00;;
5085;SDS011;4715;51.660;7.082;2022-12-28T13:54:54;3.77;;;1.97;;
5085;SDS011;4715;51.660;7.082;2022-12-28T13:57:23;3.37;;;2.13;;
5085;SDS011;4715;51.660;7.082;2022-12-28T13:59:49;4.10;;;1.43;;
5085;SDS011;4715;51.660;7.082;2022-12-28T14:02:14;4.40;;;1.77;;
5085;SDS011;4715;51.660;7.082;2022-12-28T14:04:38;4.53;;;1.83;;
5085;SDS011;4715;51.660;7.082;2022-12-28T14:07:01;1.67;;;1.57;;
5085;SDS011;4715;51.660;7.082;2022-12-28T14:09:23;3.33;;;1.67;;
5085;SDS011;4715;51.660;7.082;2022-12-28T14:11:45;3.07;;;1.73;;
5085;SDS011;4715;51.660;7.082;2022-12-28T14:14:08;3.17;;;1.50;;
5085;SDS011;4715;51.660;7.082;2022-12-28T14:16:32;1.80;;;1.60;;
5085;SDS011;4715;51.660;7.082;2022-12-28T14:18:55;1.93;;;1.70;;
5085;SDS011;4715;51.660;7.082;2022-12-28T14:21:30;2.47;;;1.57;;
5085;SDS011;4715;51.660;7.082;2022-12-28T14:24:01;2.30;;;1.47;;
5085;SDS011;4715;51.660;7.082;2022-12-28T14:26:24;1.60;;;1.50;;
5085;SDS011;4715;51.660;7.082;2022-12-28T14:28:46;1.53;;;1.43;;
5085;SDS011;4715;51.660;7.082;2022-12-28T14:31:11;2.87;;;2.27;;
5085;SDS011;4715;51.660;7.082;2022-12-28T14:33:47;2.50;;;1.70;;
5085;SDS011;4715;51.660;7.082;2022-12-28T14:36:15;3.37;;;1.77;;
5085;SDS011;4715;51.660;7.082;2022-12-28T14:38:44;2.40;;;2.30;;
5085;SDS011;4715;51.660;7.082;2022-12-28T14:41:12;6.27;;;2.07;;
5085;SDS011;4715;51.660;7.082;2022-12-28T14:43:38;2.33;;;1.60;;
5085;SDS011;4715;51.660;7.082;2022-12-28T14:46:13;7.20;;;2.00;;
5085;SDS011;4715;51.660;7.082;2022-12-28T14:48:37;7.13;;;2.50;;
5085;SDS011;4715;51.660;7.082;2022-12-28T14:51:04;2.80;;;2.20;;
5085;SDS011;4715;51.660;7.082;2022-12-28T14:53:43;3.03;;;2.00;;
5085;SDS011;4715;51.660;7.082;2022-12-28T14:56:07;3.80;;;1.83;;
5085;SDS011;4715;51.660;7.082;2022-12-28T14:58:31;4.50;;;2.03;;
5085;SDS011;4715;51.660;7.082;2022-12-28T15:01:01;5.50;;;2.20;;
5085;SDS011;4715;51.660;7.082;2022-12-28T15:03:25;2.30;;;2.17;;
5085;SDS011;4715;51.660;7.082;2022-12-28T15:05:50;6.07;;;2.33;;
5085;SDS011;4715;51.660;7.082;2022-12-28T15:08:16;2.10;;;2.00;;
5085;SDS011;4715;51.660;7.082;2022-12-28T15:10:39;2.00;;;1.70;;
5085;SDS011;4715;51.660;7.082;2022-12-28T15:13:03;1.80;;;1.70;;
5085;SDS011;4715;51.660;7.082;2022-12-28T15:15:25;1.80;;;1.70;;
5085;SDS011;4715;51.660;7.082;2022-12-28T15:17:48;4.80;;;2.03;;
5085;SDS011;4715;51.660;7.082;2022-12-28T15:20:10;5.33;;;2.00;;
5085;SDS011;4715;51.660;7.082;2022-12-28T15:22:36;10.03;;;1.93;;
5085;SDS011;4715;51.660;7.082;2022-12-28T15:25:01;5.60;;;2.10;;
5085;SDS011;4715;51.660;7.082;2022-12-28T15:27:23;7.93;;;1.97;;